sensor_id;sensor_type;location;lat;lon;timestamp;P1;P2;P0
64697;PMS5003;51124;53.394;-6.294;2023-04-03T00:00:32;5;4;
64697;PMS5003;51124;53.394;-6.294;2023-04-03T00:03:06;4;4;
64697;PMS5003;51124;53.394;-6.294;2023-04-03T00:05:42;4;4;
64697;PMS5003;51124;53.394;-6.294;2023-04-03T00:08:10;6;5;
64697;PMS5003;51124;53.394;-6.294;2023-04-03T00:10:38;6;5;
64697;PMS5003;51124;53.394;-6.294;2023-04-03T00:13:06;9;7;
64697;PMS5003;51124;53.394;-6.294;2023-04-03T00:15:34;5;5;
64697;PMS5003;51124;53.394;-6.294;2023-04-03T00:18:02;5;5;
64697;PMS5003;51124;53.394;-6.294;2023-04-03T00:20:30;4;4;
64697;PMS5003;51124;53.394;-6.294;2023-04-03T00:22:58;5;5;
64697;PMS5003;51124;53.394;-6.294;2023-04-03T00:25:26;5;5;
64697;PMS5003;51124;53.394;-6.294;2023-04-03T00:27:53;3;3;
64697;PMS5003;51124;53.394;-6.294;2023-04-03T00:30:21;9;6;
64697;PMS5003;51124;53.394;-6.294;2023-04-03T00:32:48;6;6;
64697;PMS5003;51124;53.394;-6.294;2023-04-03T00:35:17;6;4;
64697;PMS5003;51124;53.394;-6.294;2023-04-03T00:37:45;3;3;
64697;PMS5003;51124;53.394;-6.294;2023-04-03T00:40:15;5;4;
64697;PMS5003;51124;53.394;-6.294;2023-04-03T00:42:43;5;5;
64697;PMS5003;51124;53.394;-6.294;2023-04-03T00:45:23;5;5;
64697;PMS5003;51124;53.394;-6.294;2023-04-03T00:47:46;4;4;
64697;PMS5003;51124;53.394;-6.294;2023-04-03T00:50:14;6;5;
64697;PMS5003;51124;53.394;-6.294;2023-04-03T00:52:42;6;4;
64697;PMS5003;51124;53.394;-6.294;2023-04-03T00:55:11;8;6;
64697;PMS5003;51124;53.394;-6.294;2023-04-03T00:57:39;5;5;
64697;PMS5003;51124;53.394;-6.294;2023-04-03T01:00:09;6;5;
64697;PMS5003;51124;53.394;-6.294;2023-04-03T01:02:39;6;5;
64697;PMS5003;51124;53.394;-6.294;2023-04-03T01:05:07;5;5;
64697;PMS5003;51124;53.394;-6.294;2023-04-03T01:07:36;6;4;
64697;PMS5003;51124;53.394;-6.294;2023-04-03T01:10:04;7;6;
64697;PMS5003;51124;53.394;-6.294;2023-04-03T01:12:35;5;5;
64697;PMS5003;51124;53.394;-6.294;2023-04-03T01:15:05;6;6;
64697;PMS5003;51124;53.394;-6.294;2023-04-03T01:17:37;4;4;
64697;PMS5003;51124;53.394;-6.294;2023-04-03T01:20:17;4;4;
64697;PMS5003;51124;53.394;-6.294;2023-04-03T01:22:41;4;4;
64697;PMS5003;51124;53.394;-6.294;2023-04-03T01:25:08;3;3;
64697;PMS5003;51124;53.394;-6.294;2023-04-03T01:27:36;5;5;
64697;PMS5003;51124;53.394;-6.294;2023-04-03T01:30:05;5;5;
64697;PMS5003;51124;53.394;-6.294;2023-04-03T01:32:33;6;5;
64697;PMS5003;51124;53.394;-6.294;2023-04-03T01:35:01;4;4;
64697;PMS5003;51124;53.394;-6.294;2023-04-03T01:37:29;4;4;
64697;PMS5003;51124;53.394;-6.294;2023-04-03T01:39:56;4;4;
64697;PMS5003;51124;53.394;-6.294;2023-04-03T01:42:23;5;5;
64697;PMS5003;51124;53.394;-6.294;2023-04-03T01:44:51;5;4;
64697;PMS5003;51124;53.394;-6.294;2023-04-03T01:47:18;6;6;
64697;PMS5003;51124;53.394;-6.294;2023-04-03T01:49:46;5;5;
64697;PMS5003;51124;53.394;-6.294;2023-04-03T01:52:13;4;4;
64697;PMS5003;51124;53.394;-6.294;2023-04-03T01:54:40;3;2;
64697;PMS5003;51124;53.394;-6.294;2023-04-03T01:57:08;6;4;
64697;PMS5003;51124;53.394;-6.294;2023-04-03T01:59:35;4;4;
64697;PMS5003;51124;53.394;-6.294;2023-04-03T02:02:02;5;4;
64697;PMS5003;51124;53.394;-6.294;2023-04-03T02:04:30;4;4;
64697;PMS5003;51124;53.394;-6.294;2023-04-03T02:06:57;4;4;
64697;PMS5003;51124;53.394;-6.294;2023-04-03T02:09:25;5;4;
64697;PMS5003;51124;53.394;-6.294;2023-04-03T02:11:52;4;4;
64697;PMS5003;51124;53.394;-6.294;2023-04-03T02:14:19;6;5;
64697;PMS5003;51124;53.394;-6.294;2023-04-03T02:16:47;5;5;
64697;PMS5003;51124;53.394;-6.294;2023-04-03T02:19:14;6;6;
64697;PMS5003;51124;53.394;-6.294;2023-04-03T02:21:41;7;4;
64697;PMS5003;51124;53.394;-6.294;2023-04-03T02:24:09;5;5;
64697;PMS5003;51124;53.394;-6.294;2023-04-03T02:26:36;4;4;
64697;PMS5003;51124;53.394;-6.294;2023-04-03T02:29:03;5;4;
64697;PMS5003;51124;53.394;-6.294;2023-04-03T02:31:31;6;4;
64697;PMS5003;51124;53.394;-6.294;2023-04-03T02:33:58;4;4;
64697;PMS5003;51124;53.394;-6.294;2023-04-03T02:36:25;2;2;
64697;PMS5003;51124;53.394;-6.294;2023-04-03T02:38:52;4;4;
64697;PMS5003;51124;53.394;-6.294;2023-04-03T02:41:20;5;4;
64697;PMS5003;51124;53.394;-6.294;2023-04-03T02:43:47;3;3;
64697;PMS5003;51124;53.394;-6.294;2023-04-03T02:46:14;4;4;
64697;PMS5003;51124;53.394;-6.294;2023-04-03T02:48:42;5;4;
64697;PMS5003;51124;53.394;-6.294;2023-04-03T02:51:09;6;4;
64697;PMS5003;51124;53.394;-6.294;2023-04-03T02:53:36;6;4;
64697;PMS5003;51124;53.394;-6.294;2023-04-03T02:56:04;4;4;
64697;PMS5003;51124;53.394;-6.294;2023-04-03T02:58:31;4;4;
64697;PMS5003;51124;53.394;-6.294;2023-04-03T03:00:59;4;4;
64697;PMS5003;51124;53.394;-6.294;2023-04-03T03:03:26;4;4;
64697;PMS5003;51124;53.394;-6.294;2023-04-03T03:06:00;4;3;
64697;PMS5003;51124;53.394;-6.294;2023-04-03T03:08:28;5;5;
64697;PMS5003;51124;53.394;-6.294;2023-04-03T03:10:55;4;3;
64697;PMS5003;51124;53.394;-6.294;2023-04-03T03:13:23;6;4;
64697;PMS5003;51124;53.394;-6.294;2023-04-03T03:15:51;3;3;
64697;PMS5003;51124;53.394;-6.294;2023-04-03T03:18:18;4;4;
64697;PMS5003;51124;53.394;-6.294;2023-04-03T03:20:46;3;3;
64697;PMS5003;51124;53.394;-6.294;2023-04-03T03:23:15;6;5;
64697;PMS5003;51124;53.394;-6.294;2023-04-03T03:25:42;3;3;
64697;PMS5003;51124;53.394;-6.294;2023-04-03T03:28:10;5;3;
64697;PMS5003;51124;53.394;-6.294;2023-04-03T03:30:37;3;2;
64697;PMS5003;51124;53.394;-6.294;2023-04-03T03:33:05;5;5;
64697;PMS5003;51124;53.394;-6.294;2023-04-03T03:35:32;3;3;
64697;PMS5003;51124;53.394;-6.294;2023-04-03T03:37:59;2;2;
64697;PMS5003;51124;53.394;-6.294;2023-04-03T03:40:27;3;3;
64697;PMS5003;51124;53.394;-6.294;2023-04-03T03:42:54;4;4;
64697;PMS5003;51124;53.394;-6.294;2023-04-03T03:45:22;3;3;
64697;PMS5003;51124;53.394;-6.294;2023-04-03T03:47:49;4;3;
64697;PMS5003;51124;53.394;-6.294;2023-04-03T03:50:17;4;3;
64697;PMS5003;51124;53.394;-6.294;2023-04-03T03:52:45;4;3;
64697;PMS5003;51124;53.394;-6.294;2023-04-03T03:55:13;4;3;
64697;PMS5003;51124;53.394;-6.294;2023-04-03T03:57:41;5;4;
64697;PMS5003;51124;53.394;-6.294;2023-04-03T04:00:09;4;3;
64697;PMS5003;51124;53.394;-6.294;2023-04-03T04:02:37;3;3;
64697;PMS5003;51124;53.394;-6.294;2023-04-03T04:05:05;2;2;
64697;PMS5003;51124;53.394;-6.294;2023-04-03T04:07:33;4;3;
64697;PMS5003;51124;53.394;-6.294;2023-04-03T04:10:01;4;4;
64697;PMS5003;51124;53.394;-6.294;2023-04-03T04:12:30;5;4;
64697;PMS5003;51124;53.394;-6.294;2023-04-03T04:14:58;4;3;
64697;PMS5003;51124;53.394;-6.294;2023-04-03T04:17:25;4;4;
64697;PMS5003;51124;53.394;-6.294;2023-04-03T04:19:53;4;4;
64697;PMS5003;51124;53.394;-6.294;2023-04-03T04:22:21;4;3;
64697;PMS5003;51124;53.394;-6.294;2023-04-03T04:24:49;2;2;
64697;PMS5003;51124;53.394;-6.294;2023-04-03T04:27:16;3;2;
64697;PMS5003;51124;53.394;-6.294;2023-04-03T04:29:44;4;4;
64697;PMS5003;51124;53.394;-6.294;2023-04-03T04:32:12;3;3;
64697;PMS5003;51124;53.394;-6.294;2023-04-03T04:34:39;2;2;
64697;PMS5003;51124;53.394;-6.294;2023-04-03T04:37:07;3;3;
64697;PMS5003;51124;53.394;-6.294;2023-04-03T04:39:35;2;2;
64697;PMS5003;51124;53.394;-6.294;2023-04-03T04:42:02;5;3;
64697;PMS5003;51124;53.394;-6.294;2023-04-03T04:44:30;5;4;
64697;PMS5003;51124;53.394;-6.294;2023-04-03T04:46:57;2;2;
64697;PMS5003;51124;53.394;-6.294;2023-04-03T04:49:24;4;3;
64697;PMS5003;51124;53.394;-6.294;2023-04-03T04:51:52;2;2;
64697;PMS5003;51124;53.394;-6.294;2023-04-03T04:54:19;1;1;
64697;PMS5003;51124;53.394;-6.294;2023-04-03T04:56:46;3;3;
64697;PMS5003;51124;53.394;-6.294;2023-04-03T04:59:14;3;3;
64697;PMS5003;51124;53.394;-6.294;2023-04-03T05:01:41;2;2;
64697;PMS5003;51124;53.394;-6.294;2023-04-03T05:04:09;4;4;
64697;PMS5003;51124;53.394;-6.294;2023-04-03T05:06:36;2;2;
64697;PMS5003;51124;53.394;-6.294;2023-04-03T05:09:03;3;3;
64697;PMS5003;51124;53.394;-6.294;2023-04-03T05:11:31;3;3;
64697;PMS5003;51124;53.394;-6.294;2023-04-03T05:13:58;5;3;
64697;PMS5003;51124;53.394;-6.294;2023-04-03T05:16:26;4;4;
64697;PMS5003;51124;53.394;-6.294;2023-04-03T05:18:53;2;2;
64697;PMS5003;51124;53.394;-6.294;2023-04-03T05:21:20;2;2;
64697;PMS5003;51124;53.394;-6.294;2023-04-03T05:23:47;3;3;
64697;PMS5003;51124;53.394;-6.294;2023-04-03T05:26:15;2;2;
64697;PMS5003;51124;53.394;-6.294;2023-04-03T05:28:42;2;2;
64697;PMS5003;51124;53.394;-6.294;2023-04-03T05:31:09;2;2;
64697;PMS5003;51124;53.394;-6.294;2023-04-03T05:33:37;3;3;
64697;PMS5003;51124;53.394;-6.294;2023-04-03T05:36:05;2;1;
64697;PMS5003;51124;53.394;-6.294;2023-04-03T05:38:33;3;3;
64697;PMS5003;51124;53.394;-6.294;2023-04-03T05:41:00;4;2;
64697;PMS5003;51124;53.394;-6.294;2023-04-03T05:43:27;2;2;
64697;PMS5003;51124;53.394;-6.294;2023-04-03T05:45:55;0;0;
64697;PMS5003;51124;53.394;-6.294;2023-04-03T05:48:22;2;2;
64697;PMS5003;51124;53.394;-6.294;2023-04-03T05:50:50;2;2;
64697;PMS5003;51124;53.394;-6.294;2023-04-03T05:53:17;2;2;
64697;PMS5003;51124;53.394;-6.294;2023-04-03T05:55:49;3;2;
64697;PMS5003;51124;53.394;-6.294;2023-04-03T05:58:17;6;2;
64697;PMS5003;51124;53.394;-6.294;2023-04-03T06:00:42;4;2;
64697;PMS5003;51124;53.394;-6.294;2023-04-03T06:03:15;3;1;
64697;PMS5003;51124;53.394;-6.294;2023-04-03T06:05:49;4;1;
64697;PMS5003;51124;53.394;-6.294;2023-04-03T06:08:22;3;2;
64697;PMS5003;51124;53.394;-6.294;2023-04-03T06:10:56;3;3;
64697;PMS5003;51124;53.394;-6.294;2023-04-03T06:13:30;4;2;
64697;PMS5003;51124;53.394;-6.294;2023-04-03T06:16:03;3;2;
64697;PMS5003;51124;53.394;-6.294;2023-04-03T06:18:38;3;3;
64697;PMS5003;51124;53.394;-6.294;2023-04-03T06:21:11;4;2;
64697;PMS5003;51124;53.394;-6.294;2023-04-03T06:23:44;2;2;
64697;PMS5003;51124;53.394;-6.294;2023-04-03T06:26:18;3;3;
64697;PMS5003;51124;53.394;-6.294;2023-04-03T06:28:51;3;3;
64697;PMS5003;51124;53.394;-6.294;2023-04-03T06:31:25;3;3;
64697;PMS5003;51124;53.394;-6.294;2023-04-03T06:33:58;2;2;
64697;PMS5003;51124;53.394;-6.294;2023-04-03T06:36:32;2;2;
64697;PMS5003;51124;53.394;-6.294;2023-04-03T06:39:06;2;2;
64697;PMS5003;51124;53.394;-6.294;2023-04-03T06:41:41;3;3;
64697;PMS5003;51124;53.394;-6.294;2023-04-03T06:44:15;4;2;
64697;PMS5003;51124;53.394;-6.294;2023-04-03T06:46:49;4;2;
64697;PMS5003;51124;53.394;-6.294;2023-04-03T06:49:23;2;2;
64697;PMS5003;51124;53.394;-6.294;2023-04-03T06:51:57;2;2;
64697;PMS5003;51124;53.394;-6.294;2023-04-03T06:54:31;3;3;
64697;PMS5003;51124;53.394;-6.294;2023-04-03T06:57:05;2;2;
64697;PMS5003;51124;53.394;-6.294;2023-04-03T06:59:39;2;2;
64697;PMS5003;51124;53.394;-6.294;2023-04-03T07:02:13;2;2;
64697;PMS5003;51124;53.394;-6.294;2023-04-03T07:04:48;2;2;
64697;PMS5003;51124;53.394;-6.294;2023-04-03T07:07:21;1;1;
64697;PMS5003;51124;53.394;-6.294;2023-04-03T07:09:55;3;3;
64697;PMS5003;51124;53.394;-6.294;2023-04-03T07:12:29;2;2;
64697;PMS5003;51124;53.394;-6.294;2023-04-03T07:15:04;3;3;
64697;PMS5003;51124;53.394;-6.294;2023-04-03T07:17:28;2;2;
64697;PMS5003;51124;53.394;-6.294;2023-04-03T07:20:02;1;1;
64697;PMS5003;51124;53.394;-6.294;2023-04-03T07:22:37;1;1;
64697;PMS5003;51124;53.394;-6.294;2023-04-03T07:25:11;1;1;
64697;PMS5003;51124;53.394;-6.294;2023-04-03T07:27:45;2;2;
64697;PMS5003;51124;53.394;-6.294;2023-04-03T07:30:19;3;2;
64697;PMS5003;51124;53.394;-6.294;2023-04-03T07:32:53;3;3;
64697;PMS5003;51124;53.394;-6.294;2023-04-03T07:35:27;2;2;
64697;PMS5003;51124;53.394;-6.294;2023-04-03T07:38:01;3;2;
64697;PMS5003;51124;53.394;-6.294;2023-04-03T07:40:35;4;2;
64697;PMS5003;51124;53.394;-6.294;2023-04-03T07:43:09;2;2;
64697;PMS5003;51124;53.394;-6.294;2023-04-03T07:45:43;2;2;
64697;PMS5003;51124;53.394;-6.294;2023-04-03T07:48:17;1;1;
64697;PMS5003;51124;53.394;-6.294;2023-04-03T07:50:42;1;1;
64697;PMS5003;51124;53.394;-6.294;2023-04-03T07:53:16;1;1;
64697;PMS5003;51124;53.394;-6.294;2023-04-03T07:55:50;2;2;
64697;PMS5003;51124;53.394;-6.294;2023-04-03T07:58:24;2;2;
64697;PMS5003;51124;53.394;-6.294;2023-04-03T08:00:57;1;1;
64697;PMS5003;51124;53.394;-6.294;2023-04-03T08:03:31;1;1;
64697;PMS5003;51124;53.394;-6.294;2023-04-03T08:06:05;3;3;
64697;PMS5003;51124;53.394;-6.294;2023-04-03T08:08:30;1;1;
64697;PMS5003;51124;53.394;-6.294;2023-04-03T08:11:03;1;1;
64697;PMS5003;51124;53.394;-6.294;2023-04-03T08:13:37;0;0;
64697;PMS5003;51124;53.394;-6.294;2023-04-03T08:16:11;1;1;
64697;PMS5003;51124;53.394;-6.294;2023-04-03T08:18:38;3;3;
64697;PMS5003;51124;53.394;-6.294;2023-04-03T08:21:12;2;0;
64697;PMS5003;51124;53.394;-6.294;2023-04-03T08:23:47;1;1;
64697;PMS5003;51124;53.394;-6.294;2023-04-03T08:26:12;3;2;
64697;PMS5003;51124;53.394;-6.294;2023-04-03T08:28:37;2;2;
64697;PMS5003;51124;53.394;-6.294;2023-04-03T08:31:11;1;1;
64697;PMS5003;51124;53.394;-6.294;2023-04-03T08:33:36;1;1;
64697;PMS5003;51124;53.394;-6.294;2023-04-03T08:36:16;4;2;
64697;PMS5003;51124;53.394;-6.294;2023-04-03T08:38:40;2;2;
64697;PMS5003;51124;53.394;-6.294;2023-04-03T08:41:15;0;0;
64697;PMS5003;51124;53.394;-6.294;2023-04-03T08:43:47;1;1;
64697;PMS5003;51124;53.394;-6.294;2023-04-03T08:46:10;2;2;
64697;PMS5003;51124;53.394;-6.294;2023-04-03T08:48:37;1;0;
64697;PMS5003;51124;53.394;-6.294;2023-04-03T08:51:04;2;0;
64697;PMS5003;51124;53.394;-6.294;2023-04-03T08:53:36;2;2;
64697;PMS5003;51124;53.394;-6.294;2023-04-03T08:56:05;3;1;
64697;PMS5003;51124;53.394;-6.294;2023-04-03T08:58:33;2;2;
64697;PMS5003;51124;53.394;-6.294;2023-04-03T09:01:05;2;2;
64697;PMS5003;51124;53.394;-6.294;2023-04-03T09:03:38;0;0;
64697;PMS5003;51124;53.394;-6.294;2023-04-03T09:06:04;1;1;
64697;PMS5003;51124;53.394;-6.294;2023-04-03T09:08:31;0;0;
64697;PMS5003;51124;53.394;-6.294;2023-04-03T09:11:04;3;1;
64697;PMS5003;51124;53.394;-6.294;2023-04-03T09:13:26;1;1;
64697;PMS5003;51124;53.394;-6.294;2023-04-03T09:15:55;2;2;
64697;PMS5003;51124;53.394;-6.294;2023-04-03T09:18:30;1;1;
64697;PMS5003;51124;53.394;-6.294;2023-04-03T09:21:00;1;1;
64697;PMS5003;51124;53.394;-6.294;2023-04-03T09:23:28;2;2;
64697;PMS5003;51124;53.394;-6.294;2023-04-03T09:25:58;0;0;
64697;PMS5003;51124;53.394;-6.294;2023-04-03T09:28:26;2;1;
64697;PMS5003;51124;53.394;-6.294;2023-04-03T09:31:00;1;1;
64697;PMS5003;51124;53.394;-6.294;2023-04-03T09:33:33;2;2;
64697;PMS5003;51124;53.394;-6.294;2023-04-03T09:36:07;1;1;
64697;PMS5003;51124;53.394;-6.294;2023-04-03T09:38:41;2;2;
64697;PMS5003;51124;53.394;-6.294;2023-04-03T09:41:15;0;0;
64697;PMS5003;51124;53.394;-6.294;2023-04-03T09:43:41;3;1;
64697;PMS5003;51124;53.394;-6.294;2023-04-03T09:46:16;0;0;
64697;PMS5003;51124;53.394;-6.294;2023-04-03T09:48:51;0;0;
64697;PMS5003;51124;53.394;-6.294;2023-04-03T09:51:18;1;1;
64697;PMS5003;51124;53.394;-6.294;2023-04-03T09:53:52;1;1;
64697;PMS5003;51124;53.394;-6.294;2023-04-03T09:56:26;1;1;
64697;PMS5003;51124;53.394;-6.294;2023-04-03T09:59:06;0;0;
64697;PMS5003;51124;53.394;-6.294;2023-04-03T10:01:26;0;0;
64697;PMS5003;51124;53.394;-6.294;2023-04-03T10:04:09;1;1;
64697;PMS5003;51124;53.394;-6.294;2023-04-03T10:06:24;2;1;
64697;PMS5003;51124;53.394;-6.294;2023-04-03T10:08:59;1;1;
64697;PMS5003;51124;53.394;-6.294;2023-04-03T10:11:26;2;1;
64697;PMS5003;51124;53.394;-6.294;2023-04-03T10:14:01;3;1;
64697;PMS5003;51124;53.394;-6.294;2023-04-03T10:16:27;1;1;
64697;PMS5003;51124;53.394;-6.294;2023-04-03T10:19:03;1;1;
64697;PMS5003;51124;53.394;-6.294;2023-04-03T10:21:29;0;0;
64697;PMS5003;51124;53.394;-6.294;2023-04-03T10:24:01;0;0;
64697;PMS5003;51124;53.394;-6.294;2023-04-03T10:26:32;1;1;
64697;PMS5003;51124;53.394;-6.294;2023-04-03T10:29:06;1;1;
64697;PMS5003;51124;53.394;-6.294;2023-04-03T10:31:40;1;1;
64697;PMS5003;51124;53.394;-6.294;2023-04-03T10:34:13;0;0;
64697;PMS5003;51124;53.394;-6.294;2023-04-03T10:36:46;1;1;
64697;PMS5003;51124;53.394;-6.294;2023-04-03T10:39:19;1;1;
64697;PMS5003;51124;53.394;-6.294;2023-04-03T10:41:55;1;1;
64697;PMS5003;51124;53.394;-6.294;2023-04-03T10:44:28;3;2;
64697;PMS5003;51124;53.394;-6.294;2023-04-03T10:46:59;1;1;
64697;PMS5003;51124;53.394;-6.294;2023-04-03T10:49:34;2;2;
64697;PMS5003;51124;53.394;-6.294;2023-04-03T10:51:57;0;0;
64697;PMS5003;51124;53.394;-6.294;2023-04-03T10:54:30;1;1;
64697;PMS5003;51124;53.394;-6.294;2023-04-03T10:57:01;1;1;
64697;PMS5003;51124;53.394;-6.294;2023-04-03T10:59:26;0;0;
64697;PMS5003;51124;53.394;-6.294;2023-04-03T11:01:54;2;0;
64697;PMS5003;51124;53.394;-6.294;2023-04-03T11:04:20;1;1;
64697;PMS5003;51124;53.394;-6.294;2023-04-03T11:06:49;0;0;
64697;PMS5003;51124;53.394;-6.294;2023-04-03T11:09:18;0;0;
64697;PMS5003;51124;53.394;-6.294;2023-04-03T11:11:47;0;0;
64697;PMS5003;51124;53.394;-6.294;2023-04-03T11:14:24;3;1;
64697;PMS5003;51124;53.394;-6.294;2023-04-03T11:16:51;1;1;
64697;PMS5003;51124;53.394;-6.294;2023-04-03T11:19:23;0;0;
64697;PMS5003;51124;53.394;-6.294;2023-04-03T11:21:55;0;0;
64697;PMS5003;51124;53.394;-6.294;2023-04-03T11:24:24;1;1;
64697;PMS5003;51124;53.394;-6.294;2023-04-03T11:26:49;1;1;
64697;PMS5003;51124;53.394;-6.294;2023-04-03T11:29:17;1;1;
64697;PMS5003;51124;53.394;-6.294;2023-04-03T11:32:01;3;1;
64697;PMS5003;51124;53.394;-6.294;2023-04-03T11:34:15;0;0;
64697;PMS5003;51124;53.394;-6.294;2023-04-03T11:36:39;0;0;
64697;PMS5003;51124;53.394;-6.294;2023-04-03T11:39:09;0;0;
64697;PMS5003;51124;53.394;-6.294;2023-04-03T11:41:41;1;1;
64697;PMS5003;51124;53.394;-6.294;2023-04-03T11:44:27;1;1;
64697;PMS5003;51124;53.394;-6.294;2023-04-03T11:46:49;1;1;
64697;PMS5003;51124;53.394;-6.294;2023-04-03T11:49:49;1;1;
64697;PMS5003;51124;53.394;-6.294;2023-04-03T11:51:43;0;0;
64697;PMS5003;51124;53.394;-6.294;2023-04-03T11:54:49;1;1;
64697;PMS5003;51124;53.394;-6.294;2023-04-03T11:56:42;0;0;
64697;PMS5003;51124;53.394;-6.294;2023-04-03T11:59:19;0;0;
64697;PMS5003;51124;53.394;-6.294;2023-04-03T12:01:46;1;1;
64697;PMS5003;51124;53.394;-6.294;2023-04-03T12:04:11;1;1;
64697;PMS5003;51124;53.394;-6.294;2023-04-03T12:08:15;1;1;
64697;PMS5003;51124;53.394;-6.294;2023-04-03T12:10:25;0;0;
64697;PMS5003;51124;53.394;-6.294;2023-04-03T12:13:00;0;0;
64697;PMS5003;51124;53.394;-6.294;2023-04-03T12:15:46;0;0;
64697;PMS5003;51124;53.394;-6.294;2023-04-03T12:18:25;1;1;
64697;PMS5003;51124;53.394;-6.294;2023-04-03T12:21:06;0;0;
64697;PMS5003;51124;53.394;-6.294;2023-04-03T12:23:22;0;0;
64697;PMS5003;51124;53.394;-6.294;2023-04-03T12:25:43;0;0;
64697;PMS5003;51124;53.394;-6.294;2023-04-03T12:28:11;0;0;
64697;PMS5003;51124;53.394;-6.294;2023-04-03T12:30:44;0;0;
64697;PMS5003;51124;53.394;-6.294;2023-04-03T12:33:20;0;0;
64697;PMS5003;51124;53.394;-6.294;2023-04-03T12:35:48;0;0;
64697;PMS5003;51124;53.394;-6.294;2023-04-03T12:38:18;0;0;
64697;PMS5003;51124;53.394;-6.294;2023-04-03T12:40:49;1;0;
64697;PMS5003;51124;53.394;-6.294;2023-04-03T12:43:24;0;0;
64697;PMS5003;51124;53.394;-6.294;2023-04-03T12:45:50;0;0;
64697;PMS5003;51124;53.394;-6.294;2023-04-03T12:48:20;1;1;
64697;PMS5003;51124;53.394;-6.294;2023-04-03T12:50:47;0;0;
64697;PMS5003;51124;53.394;-6.294;2023-04-03T12:53:23;0;0;
64697;PMS5003;51124;53.394;-6.294;2023-04-03T12:55:53;0;0;
64697;PMS5003;51124;53.394;-6.294;2023-04-03T12:58:21;0;0;
64697;PMS5003;51124;53.394;-6.294;2023-04-03T13:00:46;0;0;
64697;PMS5003;51124;53.394;-6.294;2023-04-03T13:03:27;0;0;
64697;PMS5003;51124;53.394;-6.294;2023-04-03T13:05:41;0;0;
64697;PMS5003;51124;53.394;-6.294;2023-04-03T13:08:10;0;0;
64697;PMS5003;51124;53.394;-6.294;2023-04-03T13:10:43;0;0;
64697;PMS5003;51124;53.394;-6.294;2023-04-03T13:13:13;1;1;
64697;PMS5003;51124;53.394;-6.294;2023-04-03T13:15:40;0;0;
64697;PMS5003;51124;53.394;-6.294;2023-04-03T13:18:10;0;0;
64697;PMS5003;51124;53.394;-6.294;2023-04-03T13:20:35;0;0;
64697;PMS5003;51124;53.394;-6.294;2023-04-03T13:23:10;0;0;
64697;PMS5003;51124;53.394;-6.294;2023-04-03T13:25:40;0;0;
64697;PMS5003;51124;53.394;-6.294;2023-04-03T13:28:06;1;1;
64697;PMS5003;51124;53.394;-6.294;2023-04-03T13:30:36;0;0;
64697;PMS5003;51124;53.394;-6.294;2023-04-03T13:33:01;1;1;
64697;PMS5003;51124;53.394;-6.294;2023-04-03T13:35:28;0;0;
64697;PMS5003;51124;53.394;-6.294;2023-04-03T13:37:55;0;0;
64697;PMS5003;51124;53.394;-6.294;2023-04-03T13:40:20;1;0;
64697;PMS5003;51124;53.394;-6.294;2023-04-03T13:42:58;0;0;
64697;PMS5003;51124;53.394;-6.294;2023-04-03T13:45:24;0;0;
64697;PMS5003;51124;53.394;-6.294;2023-04-03T13:47:51;0;0;
64697;PMS5003;51124;53.394;-6.294;2023-04-03T13:50:17;0;0;
64697;PMS5003;51124;53.394;-6.294;2023-04-03T13:52:43;0;0;
64697;PMS5003;51124;53.394;-6.294;2023-04-03T13:55:16;0;0;
64697;PMS5003;51124;53.394;-6.294;2023-04-03T13:57:48;0;0;
64697;PMS5003;51124;53.394;-6.294;2023-04-03T14:00:35;0;0;
64697;PMS5003;51124;53.394;-6.294;2023-04-03T14:02:40;0;0;
64697;PMS5003;51124;53.394;-6.294;2023-04-03T14:05:13;2;0;
64697;PMS5003;51124;53.394;-6.294;2023-04-03T14:07:47;0;0;
64697;PMS5003;51124;53.394;-6.294;2023-04-03T14:10:20;0;0;
64697;PMS5003;51124;53.394;-6.294;2023-04-03T14:12:54;0;0;
64697;PMS5003;51124;53.394;-6.294;2023-04-03T14:15:28;0;0;
64697;PMS5003;51124;53.394;-6.294;2023-04-03T14:17:53;0;0;
64697;PMS5003;51124;53.394;-6.294;2023-04-03T14:20:27;0;0;
64697;PMS5003;51124;53.394;-6.294;2023-04-03T14:23:01;0;0;
64697;PMS5003;51124;53.394;-6.294;2023-04-03T14:25:35;0;0;
64697;PMS5003;51124;53.394;-6.294;2023-04-03T14:28:13;2;2;
64697;PMS5003;51124;53.394;-6.294;2023-04-03T14:30:38;3;2;
64697;PMS5003;51124;53.394;-6.294;2023-04-03T14:33:12;0;0;
64697;PMS5003;51124;53.394;-6.294;2023-04-03T14:35:38;0;0;
64697;PMS5003;51124;53.394;-6.294;2023-04-03T14:38:18;1;1;
64697;PMS5003;51124;53.394;-6.294;2023-04-03T14:40:45;0;0;
64697;PMS5003;51124;53.394;-6.294;2023-04-03T14:43:19;1;1;
64697;PMS5003;51124;53.394;-6.294;2023-04-03T14:45:53;1;1;
64697;PMS5003;51124;53.394;-6.294;2023-04-03T14:48:27;2;0;
64697;PMS5003;51124;53.394;-6.294;2023-04-03T14:50:52;1;1;
64697;PMS5003;51124;53.394;-6.294;2023-04-03T14:53:26;1;0;
64697;PMS5003;51124;53.394;-6.294;2023-04-03T14:55:59;1;1;
64697;PMS5003;51124;53.394;-6.294;2023-04-03T14:58:33;0;0;
64697;PMS5003;51124;53.394;-6.294;2023-04-03T15:01:08;2;1;
64697;PMS5003;51124;53.394;-6.294;2023-04-03T15:03:33;1;1;
64697;PMS5003;51124;53.394;-6.294;2023-04-03T15:06:08;0;0;
64697;PMS5003;51124;53.394;-6.294;2023-04-03T15:08:32;0;0;
64697;PMS5003;51124;53.394;-6.294;2023-04-03T15:11:05;1;1;
64697;PMS5003;51124;53.394;-6.294;2023-04-03T15:13:39;1;1;
64697;PMS5003;51124;53.394;-6.294;2023-04-03T15:16:14;0;0;
64697;PMS5003;51124;53.394;-6.294;2023-04-03T15:18:40;2;0;
64697;PMS5003;51124;53.394;-6.294;2023-04-03T15:21:14;1;1;
64697;PMS5003;51124;53.394;-6.294;2023-04-03T15:23:47;0;0;
64697;PMS5003;51124;53.394;-6.294;2023-04-03T15:26:21;0;0;
64697;PMS5003;51124;53.394;-6.294;2023-04-03T15:28:54;0;0;
64697;PMS5003;51124;53.394;-6.294;2023-04-03T15:31:28;1;0;
64697;PMS5003;51124;53.394;-6.294;2023-04-03T15:34:02;0;0;
64697;PMS5003;51124;53.394;-6.294;2023-04-03T15:36:36;0;0;
64697;PMS5003;51124;53.394;-6.294;2023-04-03T15:39:09;1;0;
64697;PMS5003;51124;53.394;-6.294;2023-04-03T15:41:43;1;1;
64697;PMS5003;51124;53.394;-6.294;2023-04-03T15:44:17;0;0;
64697;PMS5003;51124;53.394;-6.294;2023-04-03T15:46:50;0;0;
64697;PMS5003;51124;53.394;-6.294;2023-04-03T15:49:24;1;0;
64697;PMS5003;51124;53.394;-6.294;2023-04-03T15:51:58;1;1;
64697;PMS5003;51124;53.394;-6.294;2023-04-03T15:54:31;0;0;
64697;PMS5003;51124;53.394;-6.294;2023-04-03T15:57:05;3;0;
64697;PMS5003;51124;53.394;-6.294;2023-04-03T15:59:39;1;1;
64697;PMS5003;51124;53.394;-6.294;2023-04-03T16:02:12;1;1;
64697;PMS5003;51124;53.394;-6.294;2023-04-03T16:04:46;1;1;
64697;PMS5003;51124;53.394;-6.294;2023-04-03T16:07:21;2;2;
64697;PMS5003;51124;53.394;-6.294;2023-04-03T16:09:55;0;0;
64697;PMS5003;51124;53.394;-6.294;2023-04-03T16:12:29;1;1;
64697;PMS5003;51124;53.394;-6.294;2023-04-03T16:15:03;0;0;
64697;PMS5003;51124;53.394;-6.294;2023-04-03T16:17:28;1;1;
64697;PMS5003;51124;53.394;-6.294;2023-04-03T16:20:03;2;1;
64697;PMS5003;51124;53.394;-6.294;2023-04-03T16:22:29;1;1;
64697;PMS5003;51124;53.394;-6.294;2023-04-03T16:25:04;1;1;
64697;PMS5003;51124;53.394;-6.294;2023-04-03T16:27:29;1;1;
64697;PMS5003;51124;53.394;-6.294;2023-04-03T16:30:04;1;1;
64697;PMS5003;51124;53.394;-6.294;2023-04-03T16:32:29;1;1;
64697;PMS5003;51124;53.394;-6.294;2023-04-03T16:34:54;1;1;
64697;PMS5003;51124;53.394;-6.294;2023-04-03T16:37:28;1;1;
64697;PMS5003;51124;53.394;-6.294;2023-04-03T16:40:03;0;0;
64697;PMS5003;51124;53.394;-6.294;2023-04-03T16:42:28;2;2;
64697;PMS5003;51124;53.394;-6.294;2023-04-03T16:45:02;1;1;
64697;PMS5003;51124;53.394;-6.294;2023-04-03T16:47:36;1;1;
64697;PMS5003;51124;53.394;-6.294;2023-04-03T16:50:10;3;3;
64697;PMS5003;51124;53.394;-6.294;2023-04-03T16:52:44;2;2;